createdAt,value
2023-05-05T00:25:46.521Z,100331.30
2023-05-05T00:40:38.974Z,100319.83
2023-05-05T00:55:31.424Z,100321.10
2023-05-05T01:10:26.424Z,100325.89
2023-05-05T01:25:34.717Z,100333.41
2023-05-05T01:40:31.418Z,100342.22
2023-05-05T02:25:38.938Z,100369.98
2023-05-05T03:40:01.807Z,100376.12
2023-05-05T04:09:47.408Z,100381.91
2023-05-05T04:24:41.823Z,100402.30
2023-05-05T04:39:33.953Z,100406.22
2023-05-05T04:54:25.624Z,100421.98
2023-05-05T05:09:18.749Z,100429.03
2023-05-05T05:24:12.137Z,100431.36
2023-05-05T05:39:06.035Z,100438.20
2023-05-05T05:53:59.012Z,100454.92
2023-05-05T06:08:54.402Z,100468.75
2023-05-05T06:23:46.150Z,100472.34
2023-05-05T06:38:38.304Z,100483.56
2023-05-05T06:53:32.031Z,100497.18
2023-05-05T07:08:27.090Z,100487.59
2023-05-05T07:23:20.605Z,100492.91
2023-05-05T07:38:13.371Z,100488.11
2023-05-05T07:53:13.713Z,100476.99
2023-05-05T08:07:58.380Z,100484.77
2023-05-05T08:22:51.764Z,100474.13
2023-05-05T08:37:46.808Z,100470.70
2023-05-05T08:52:45.964Z,100476.98
2023-05-05T09:07:43.693Z,100476.27
2023-05-05T09:22:41.202Z,100474.84
2023-05-05T09:37:39.793Z,100466.03
2023-05-05T09:52:34.072Z,100458.81
2023-05-05T10:07:28.184Z,100469.55
2023-05-05T10:22:20.690Z,100455.86
2023-05-05T10:37:13.686Z,100451.97
2023-05-05T10:52:13.205Z,100430.48
2023-05-05T11:07:14.706Z,100420.67
2023-05-05T11:22:04.368Z,100392.64
2023-05-05T11:36:58.141Z,100379.63
2023-05-05T11:52:06.694Z,100360.27
2023-05-05T12:07:06.534Z,100350.88
2023-05-05T12:21:58.281Z,100345.59
2023-05-05T12:36:52.098Z,100315.69
2023-05-05T12:51:52.778Z,100300.28
2023-05-05T13:07:14.839Z,100277.51
2023-05-05T13:22:11.664Z,100267.28
2023-05-05T13:37:21.411Z,100248.72
2023-05-05T13:52:09.390Z,100231.67
2023-05-05T14:07:05.290Z,100196.83
2023-05-05T14:21:59.915Z,100198.66
2023-05-05T14:36:50.554Z,100198.42
2023-05-05T14:51:39.186Z,100203.11
2023-05-05T15:06:29.700Z,100206.30
2023-05-05T15:21:22.713Z,100237.16
2023-05-05T15:36:09.912Z,100299.13
2023-05-05T15:50:59.746Z,100370.89
2023-05-05T16:05:51.016Z,100364.23
2023-05-05T16:20:43.195Z,100359.56
2023-05-05T16:35:35.760Z,100343.37
2023-05-05T16:50:28.303Z,100339.73
2023-05-05T17:05:21.448Z,100326.09
2023-05-05T17:20:13.836Z,100325.64
2023-05-05T17:35:06.535Z,100358.11
2023-05-05T18:05:08.514Z,100377.44
2023-05-05T18:19:56.576Z,100389.09
2023-05-05T18:34:48.663Z,100390.94
2023-05-05T18:49:41.342Z,100388.09
2023-05-05T19:04:33.730Z,100416.95
2023-05-05T19:19:26.264Z,100420.17
2023-05-05T19:34:18.054Z,100427.30
2023-05-05T19:49:09.576Z,100433.02
2023-05-05T20:04:01.024Z,100449.39
2023-05-05T20:19:10.330Z,100443.16
2023-05-05T20:33:55.875Z,100459.31
2023-05-05T20:48:50.942Z,100466.08
2023-05-05T21:03:41.894Z,100474.25
2023-05-05T21:18:34.468Z,100461.66
2023-05-05T21:33:26.579Z,100461.31
2023-05-05T21:48:17.978Z,100461.41
2023-05-05T22:03:13.311Z,100460.07
2023-05-05T22:18:09.926Z,100463.48
2023-05-05T22:33:00.886Z,100467.89
2023-05-05T22:47:52.535Z,100471.47
2023-05-05T23:02:45.471Z,100478.33
2023-05-05T23:17:37.652Z,100474.81
2023-05-05T23:32:29.115Z,100474.05
2023-05-05T23:47:22.081Z,100473.61
